createdAt,value
2023-03-04T00:01:15.842Z,15.83
2023-03-04T00:04:17.938Z,15.83
2023-03-04T00:07:20.135Z,15.82
2023-03-04T00:10:21.576Z,15.81
2023-03-04T00:13:24.151Z,15.81
2023-03-04T00:16:29.076Z,15.82
2023-03-04T00:19:31.497Z,15.83
2023-03-04T00:22:32.967Z,15.83
2023-03-04T00:25:34.507Z,15.84
2023-03-04T00:28:36.351Z,15.84
2023-03-04T00:31:38.052Z,15.85
2023-03-04T00:34:40.542Z,15.85
2023-03-04T00:37:42.348Z,15.86
2023-03-04T00:40:44.684Z,15.87
2023-03-04T00:43:46.177Z,15.86
2023-03-04T00:46:47.661Z,15.87
2023-03-04T00:49:49.200Z,15.87
2023-03-04T00:52:50.817Z,15.88
2023-03-04T00:55:52.291Z,15.86
2023-03-04T00:58:53.858Z,15.85
2023-03-04T01:01:55.400Z,15.84
2023-03-04T01:04:56.944Z,15.83
2023-03-04T01:07:58.424Z,15.80
2023-03-04T01:10:59.902Z,15.79
2023-03-04T01:14:02.265Z,15.78
2023-03-04T01:17:05.042Z,15.78
2023-03-04T01:20:07.788Z,15.76
2023-03-04T01:23:10.379Z,15.77
2023-03-04T01:26:11.889Z,15.78
2023-03-04T01:29:13.386Z,15.78
2023-03-04T01:32:15.422Z,15.79
2023-03-04T01:35:16.901Z,15.79
2023-03-04T01:38:18.456Z,15.80
2023-03-04T01:41:24.860Z,15.80
2023-03-04T01:44:26.736Z,15.80
2023-03-04T01:47:31.059Z,15.79
2023-03-04T01:50:35.541Z,15.80
2023-03-04T01:53:37.052Z,15.79
2023-03-04T01:56:39.946Z,15.79
2023-03-04T01:59:41.842Z,15.78
2023-03-04T02:02:43.425Z,15.76
2023-03-04T02:05:48.556Z,15.75
2023-03-04T02:08:50.077Z,15.74
2023-03-04T02:11:52.318Z,15.72
2023-03-04T02:14:53.850Z,15.70
2023-03-04T02:17:55.680Z,15.69
2023-03-04T02:21:00.138Z,15.68
2023-03-04T02:24:30.578Z,15.70
2023-03-04T02:27:32.150Z,15.69
2023-03-04T02:30:35.068Z,15.70
2023-03-04T02:33:36.626Z,15.71
2023-03-04T02:36:39.750Z,15.72
2023-03-04T02:39:46.790Z,15.73
2023-03-04T02:42:48.298Z,15.72
2023-03-04T02:45:50.695Z,15.73
2023-03-04T02:48:53.048Z,15.73
2023-03-04T02:52:05.496Z,15.74
2023-03-04T02:55:07.526Z,15.73
2023-03-04T02:58:10.934Z,15.72
2023-03-04T03:01:12.640Z,15.71
2023-03-04T03:04:14.896Z,15.72
2023-03-04T03:07:18.988Z,15.70
2023-03-04T03:10:21.317Z,15.69
2023-03-04T03:13:23.125Z,15.68
2023-03-04T03:16:25.180Z,15.66
2023-03-04T03:19:26.788Z,15.68
2023-03-04T03:22:29.094Z,15.67
2023-03-04T03:25:30.640Z,15.67
2023-03-04T03:28:32.494Z,15.66
2023-03-04T03:31:35.092Z,15.66
2023-03-04T03:34:36.661Z,15.68
2023-03-04T03:37:38.453Z,15.68
2023-03-04T03:40:39.967Z,15.69
2023-03-04T03:43:41.434Z,15.70
2023-03-04T03:46:43.106Z,15.69
2023-03-04T03:49:44.587Z,15.70
2023-03-04T03:52:46.195Z,15.70
2023-03-04T03:55:47.669Z,15.69
2023-03-04T03:58:49.194Z,15.68
2023-03-04T04:01:50.885Z,15.67
2023-03-04T04:04:52.491Z,15.65
2023-03-04T04:07:54.357Z,15.64
2023-03-04T04:10:55.883Z,15.64
2023-03-04T04:13:57.388Z,15.63
2023-03-04T04:16:59.031Z,15.63
2023-03-04T04:20:00.664Z,15.63
2023-03-04T04:23:03.514Z,15.60
2023-03-04T04:26:05.152Z,15.60
2023-03-04T04:29:06.657Z,15.60
2023-03-04T04:32:08.955Z,15.60
2023-03-04T04:35:10.798Z,15.62
2023-03-04T04:38:12.381Z,15.63
2023-03-04T04:41:23.600Z,15.65
2023-03-04T04:44:25.112Z,15.64
2023-03-04T04:47:26.628Z,15.64
2023-03-04T04:50:28.130Z,15.64
2023-03-04T04:53:29.654Z,15.65
2023-03-04T04:56:31.520Z,15.65
2023-03-04T04:59:32.991Z,15.64
2023-03-04T05:02:37.370Z,15.64
2023-03-04T05:05:38.852Z,15.63
2023-03-04T05:08:40.451Z,15.64
2023-03-04T05:11:41.976Z,15.63
2023-03-04T05:14:43.472Z,15.63
2023-03-04T05:17:44.965Z,15.62
2023-03-04T05:20:50.898Z,15.60
2023-03-04T05:23:52.430Z,15.56
2023-03-04T05:26:53.964Z,15.57
2023-03-04T05:29:59.677Z,15.57
2023-03-04T05:33:01.140Z,15.57
2023-03-04T05:36:05.010Z,15.59
2023-03-04T05:39:06.505Z,15.58
2023-03-04T05:42:08.061Z,15.60
2023-03-04T05:45:09.918Z,15.60
2023-03-04T05:48:11.416Z,15.61
2023-03-04T05:51:13.010Z,15.62
2023-03-04T05:54:14.726Z,15.63
2023-03-04T05:57:16.238Z,15.63
2023-03-04T06:00:18.088Z,15.63
2023-03-04T06:03:21.871Z,15.63
2023-03-04T06:06:23.546Z,15.63
2023-03-04T06:09:25.311Z,15.61
2023-03-04T06:12:28.688Z,15.61
2023-03-04T06:15:30.775Z,15.60
2023-03-04T06:18:32.354Z,15.58
2023-03-04T06:21:33.817Z,15.58
2023-03-04T06:24:35.587Z,15.56
2023-03-04T06:27:37.173Z,15.56
2023-03-04T06:30:38.735Z,15.54
2023-03-04T06:33:40.276Z,15.53
2023-03-04T06:36:41.763Z,15.54
2023-03-04T06:39:43.375Z,15.54
2023-03-04T06:42:44.864Z,15.54
2023-03-04T06:45:46.750Z,15.55
2023-03-04T06:48:48.280Z,15.56
2023-03-04T06:51:49.764Z,15.58
2023-03-04T06:54:51.285Z,15.59
2023-03-04T06:57:52.830Z,15.59
2023-03-04T07:00:54.380Z,15.60
2023-03-04T07:03:56.970Z,15.62
2023-03-04T07:06:58.515Z,15.61
2023-03-04T07:10:00.256Z,15.61
2023-03-04T07:13:01.975Z,15.61
2023-03-04T07:16:05.047Z,15.61
2023-03-04T07:19:06.619Z,15.58
2023-03-04T07:22:08.133Z,15.59
2023-03-04T07:25:10.073Z,15.57
2023-03-04T07:28:11.799Z,15.56
2023-03-04T07:31:24.412Z,15.56
2023-03-04T07:34:26.005Z,15.55
2023-03-04T07:37:27.521Z,15.53
2023-03-04T07:40:29.109Z,15.54
2023-03-04T07:43:30.719Z,15.55
2023-03-04T07:46:32.311Z,15.55
2023-03-04T07:49:33.799Z,15.56
2023-03-04T07:52:41.337Z,15.60
2023-03-04T07:55:42.843Z,15.61
2023-03-04T07:58:45.065Z,15.64
2023-03-04T08:01:46.539Z,15.66
2023-03-04T08:04:48.004Z,15.69
2023-03-04T08:07:49.474Z,15.71
2023-03-04T08:10:50.962Z,15.74
2023-03-04T08:13:54.199Z,15.77
2023-03-04T08:16:55.790Z,15.78
2023-03-04T08:19:57.330Z,15.80
2023-03-04T08:22:58.807Z,15.83
2023-03-04T08:26:00.282Z,15.86
2023-03-04T08:29:05.303Z,15.91
2023-03-04T08:32:06.846Z,15.94
2023-03-04T08:35:08.387Z,15.95
2023-03-04T08:38:09.858Z,15.98
2023-03-04T08:41:12.504Z,16.00
2023-03-04T08:44:14.541Z,16.01
2023-03-04T08:47:16.531Z,16.01
2023-03-04T08:50:18.090Z,16.02
2023-03-04T08:53:20.680Z,16.02
2023-03-04T08:56:22.443Z,16.04
2023-03-04T08:59:24.122Z,16.04
2023-03-04T09:02:25.653Z,16.05
2023-03-04T09:05:27.196Z,16.04
2023-03-04T09:08:29.482Z,16.05
2023-03-04T09:11:31.321Z,16.06
2023-03-04T09:14:35.650Z,16.04
2023-03-04T09:17:37.724Z,16.05
2023-03-04T09:20:39.401Z,16.04
2023-03-04T09:23:41.113Z,16.04
2023-03-04T09:26:42.624Z,16.04
2023-03-04T09:29:45.668Z,16.05
2023-03-04T09:32:47.327Z,16.04
2023-03-04T09:35:49.797Z,16.05
2023-03-04T09:38:51.477Z,16.05
2023-03-04T09:41:57.332Z,16.06
2023-03-04T09:44:59.042Z,16.07
2023-03-04T09:48:01.716Z,16.09
2023-03-04T09:51:09.054Z,16.07
2023-03-04T09:54:16.474Z,16.08
2023-03-04T09:57:24.426Z,16.08
2023-03-04T10:00:25.908Z,16.09
2023-03-04T10:03:56.369Z,16.11
2023-03-04T10:06:58.696Z,16.11
2023-03-04T10:10:04.692Z,16.11
2023-03-04T10:13:14.772Z,16.12
2023-03-04T10:16:21.393Z,16.11
2023-03-04T10:19:27.983Z,16.10
2023-03-04T10:22:35.082Z,16.12
2023-03-04T10:25:41.601Z,16.10
2023-03-04T10:28:43.108Z,16.09
2023-03-04T10:31:46.200Z,16.09
2023-03-04T10:34:47.955Z,16.09
2023-03-04T10:37:51.087Z,16.10
2023-03-04T10:40:52.661Z,16.08
2023-03-04T10:44:04.955Z,16.11
2023-03-04T10:47:10.126Z,16.09
2023-03-04T10:50:25.831Z,16.10
2023-03-04T10:53:37.619Z,16.11
2023-03-04T10:56:45.387Z,16.11
2023-03-04T10:59:58.704Z,16.11
2023-03-04T11:03:21.802Z,16.12
2023-03-04T11:06:23.368Z,16.11
2023-03-04T11:09:29.886Z,16.13
2023-03-04T11:12:34.681Z,16.14
2023-03-04T11:16:01.142Z,16.13
2023-03-04T11:19:10.894Z,16.13
2023-03-04T11:22:18.213Z,16.14
2023-03-04T11:25:25.393Z,16.14
2023-03-04T11:29:01.003Z,16.14
2023-03-04T11:32:10.003Z,16.13
2023-03-04T11:35:21.799Z,16.15
2023-03-04T11:38:31.953Z,16.15
2023-03-04T11:41:35.798Z,16.16
2023-03-04T11:44:37.385Z,16.15
2023-03-04T11:48:12.905Z,16.15
2023-03-04T11:51:34.360Z,16.16
2023-03-04T11:54:53.836Z,16.15
2023-03-04T11:58:19.230Z,16.16
2023-03-04T12:01:44.447Z,16.15
2023-03-04T12:05:04.249Z,16.13
2023-03-04T12:08:36.875Z,16.17
2023-03-04T12:11:49.546Z,16.19
2023-03-04T12:15:01.547Z,16.19
2023-03-04T12:18:12.083Z,16.22
2023-03-04T12:21:24.049Z,16.26
2023-03-04T12:24:49.934Z,16.28
2023-03-04T12:28:21.169Z,16.29
2023-03-04T12:31:52.562Z,16.34
2023-03-04T12:35:19.500Z,16.37
2023-03-04T12:38:56.300Z,16.38
2023-03-04T12:42:21.295Z,16.40
2023-03-04T12:45:38.049Z,16.39
2023-03-04T12:48:42.189Z,16.42
2023-03-04T12:51:52.740Z,16.43
2023-03-04T12:55:00.013Z,16.43
2023-03-04T12:58:01.916Z,16.45
2023-03-04T13:01:16.785Z,16.49
2023-03-04T13:04:27.880Z,16.50
2023-03-04T13:07:49.802Z,16.51
2023-03-04T13:10:52.389Z,16.51
2023-03-04T13:14:07.453Z,16.51
2023-03-04T13:17:40.872Z,16.52
2023-03-04T13:20:43.660Z,16.51
2023-03-04T13:23:45.233Z,16.52
2023-03-04T13:26:46.940Z,16.53
2023-03-04T13:29:48.444Z,16.55
2023-03-04T13:32:49.913Z,16.56
2023-03-04T13:35:54.407Z,16.56
2023-03-04T13:39:00.570Z,16.58
2023-03-04T13:42:04.264Z,16.60
2023-03-04T13:45:34.395Z,16.62
2023-03-04T13:48:37.345Z,16.63
2023-03-04T13:51:43.034Z,16.64
2023-03-04T13:54:44.579Z,16.65
2023-03-04T13:57:50.952Z,16.68
2023-03-04T14:00:54.959Z,16.68
2023-03-04T14:03:56.533Z,16.69
2023-03-04T14:07:00.612Z,16.69
2023-03-04T14:10:08.315Z,16.72
2023-03-04T14:13:11.228Z,16.73
2023-03-04T14:16:18.959Z,16.74
2023-03-04T14:19:33.495Z,16.77
2023-03-04T14:22:41.572Z,16.78
2023-03-04T14:25:43.067Z,16.79
2023-03-04T14:28:50.293Z,16.79
2023-03-04T14:31:53.824Z,16.80
2023-03-04T14:35:01.412Z,16.81
2023-03-04T14:38:15.926Z,16.81
2023-03-04T14:41:22.589Z,16.83
2023-03-04T14:44:26.865Z,16.81
2023-03-04T14:47:41.321Z,16.84
2023-03-04T14:50:53.118Z,16.85
2023-03-04T14:53:56.246Z,16.85
2023-03-04T14:56:59.652Z,16.86
2023-03-04T15:00:19.909Z,16.86
2023-03-04T15:03:25.574Z,16.85
2023-03-04T15:06:30.165Z,16.85
2023-03-04T15:09:31.715Z,16.84
2023-03-04T15:12:37.625Z,16.84
2023-03-04T15:15:46.934Z,16.85
2023-03-04T15:19:06.209Z,16.83
2023-03-04T15:22:08.097Z,16.82
2023-03-04T15:25:15.177Z,16.83
2023-03-04T15:28:20.346Z,16.83
2023-03-04T15:31:25.733Z,16.83
2023-03-04T15:34:27.409Z,16.81
2023-03-04T15:37:29.519Z,16.78
2023-03-04T15:40:32.312Z,16.37
2023-03-04T15:43:33.801Z,15.78
2023-03-04T15:46:35.531Z,15.39
2023-03-04T15:49:37.077Z,15.34
2023-03-04T15:52:39.626Z,15.46
2023-03-04T15:55:44.863Z,15.61
2023-03-04T15:58:55.162Z,15.75
2023-03-04T16:01:56.638Z,15.85
2023-03-04T16:04:58.130Z,15.98
2023-03-04T16:07:59.604Z,16.07
2023-03-04T16:11:01.178Z,16.15
2023-03-04T16:14:02.668Z,16.22
2023-03-04T16:17:04.422Z,16.28
2023-03-04T16:20:06.421Z,16.35
2023-03-04T16:23:13.295Z,16.42
2023-03-04T16:26:20.869Z,16.46
2023-03-04T16:29:22.387Z,16.49
2023-03-04T16:32:24.842Z,16.52
2023-03-04T16:35:27.688Z,16.56
2023-03-04T16:38:34.118Z,16.61
2023-03-04T16:41:37.068Z,16.64
2023-03-04T16:44:38.621Z,16.67
2023-03-04T16:47:40.093Z,16.68
2023-03-04T16:50:41.815Z,16.70
2023-03-04T16:53:47.173Z,16.74
2023-03-04T16:56:48.664Z,16.76
2023-03-04T16:59:50.666Z,16.78
2023-03-04T17:03:01.603Z,16.81
2023-03-04T17:06:03.110Z,16.81
2023-03-04T17:09:09.139Z,16.83
2023-03-04T17:12:12.372Z,16.86
2023-03-04T17:15:14.781Z,16.85
2023-03-04T17:18:16.315Z,16.86
2023-03-04T17:21:23.758Z,16.88
2023-03-04T17:24:25.984Z,16.89
2023-03-04T17:27:27.446Z,16.89
2023-03-04T17:30:29.006Z,16.91
2023-03-04T17:33:30.519Z,16.93
2023-03-04T17:36:32.151Z,16.94
2023-03-04T17:39:33.712Z,16.94
2023-03-04T17:42:35.246Z,16.96
2023-03-04T17:45:43.894Z,16.97
2023-03-04T17:48:45.690Z,16.98
2023-03-04T17:51:47.178Z,16.98
2023-03-04T17:54:48.744Z,16.98
2023-03-04T17:57:52.816Z,16.98
2023-03-04T18:01:00.879Z,17.00
2023-03-04T18:04:02.828Z,17.01
2023-03-04T18:07:04.321Z,17.00
2023-03-04T18:10:06.399Z,17.02
2023-03-04T18:13:08.559Z,17.02
2023-03-04T18:16:11.922Z,17.03
2023-03-04T18:19:13.519Z,17.04
2023-03-04T18:22:15.206Z,17.04
2023-03-04T18:25:16.897Z,17.04
2023-03-04T18:28:18.668Z,17.05
2023-03-04T18:31:22.097Z,17.06
2023-03-04T18:34:23.583Z,17.05
2023-03-04T18:37:25.072Z,17.06
2023-03-04T18:40:28.498Z,17.06
2023-03-04T18:43:30.030Z,17.05
2023-03-04T18:46:31.496Z,17.03
2023-03-04T18:49:33.376Z,17.04
2023-03-04T18:52:36.091Z,17.03
2023-03-04T18:55:37.598Z,17.02
2023-03-04T18:58:42.739Z,17.01
2023-03-04T19:01:45.517Z,17.00
2023-03-04T19:04:49.163Z,16.99
2023-03-04T19:07:50.846Z,16.99
2023-03-04T19:10:52.393Z,16.97
2023-03-04T19:13:53.894Z,16.97
2023-03-04T19:16:55.503Z,16.94
2023-03-04T19:19:57.080Z,16.93
2023-03-04T19:22:58.642Z,16.91
2023-03-04T19:26:00.156Z,16.89
2023-03-04T19:29:01.617Z,16.86
2023-03-04T19:32:03.168Z,16.86
2023-03-04T19:35:05.071Z,16.84
2023-03-04T19:38:06.643Z,16.83
2023-03-04T19:41:10.851Z,16.84
2023-03-04T19:44:12.323Z,16.82
2023-03-04T19:47:13.814Z,16.81
2023-03-04T19:50:16.168Z,16.81
2023-03-04T19:53:18.666Z,16.80
2023-03-04T19:56:21.447Z,16.79
2023-03-04T19:59:22.896Z,16.77
2023-03-04T20:02:24.355Z,16.76
2023-03-04T20:05:25.857Z,16.74
2023-03-04T20:08:27.358Z,16.74
2023-03-04T20:11:29.775Z,16.73
2023-03-04T20:14:33.062Z,16.71
2023-03-04T20:17:34.607Z,16.71
2023-03-04T20:20:38.126Z,16.71
2023-03-04T20:23:39.622Z,16.70
2023-03-04T20:26:41.080Z,16.70
2023-03-04T20:29:42.666Z,16.69
2023-03-04T20:32:44.914Z,16.70
2023-03-04T20:35:46.422Z,16.69
2023-03-04T20:38:49.058Z,16.70
2023-03-04T20:41:50.527Z,16.69
2023-03-04T20:44:51.996Z,16.69
2023-03-04T20:47:53.529Z,16.71
2023-03-04T20:50:54.968Z,16.70
2023-03-04T20:53:57.070Z,16.72
2023-03-04T20:56:58.701Z,16.73
2023-03-04T21:00:00.218Z,16.73
2023-03-04T21:03:01.706Z,16.74
2023-03-04T21:06:04.628Z,16.76
2023-03-04T21:09:12.890Z,16.77
2023-03-04T21:12:14.620Z,16.76
2023-03-04T21:15:16.242Z,16.78
2023-03-04T21:18:17.719Z,16.77
2023-03-04T21:21:22.223Z,16.79
2023-03-04T21:24:26.579Z,16.80
2023-03-04T21:27:28.417Z,16.79
2023-03-04T21:30:29.897Z,16.79
2023-03-04T21:33:36.265Z,16.80
2023-03-04T21:36:37.742Z,16.79
2023-03-04T21:39:39.359Z,16.79
2023-03-04T21:42:40.876Z,16.78
2023-03-04T21:45:42.365Z,16.77
2023-03-04T21:48:44.809Z,16.77
2023-03-04T21:51:46.527Z,16.76
2023-03-04T21:54:48.488Z,16.75
2023-03-04T21:57:49.975Z,16.73
2023-03-04T22:00:52.155Z,16.72
2023-03-04T22:03:54.339Z,16.70
2023-03-04T22:06:55.906Z,16.69
2023-03-04T22:09:59.374Z,16.67
2023-03-04T22:13:00.852Z,16.65
2023-03-04T22:16:02.646Z,16.63
2023-03-04T22:19:04.443Z,16.63
2023-03-04T22:22:06.455Z,16.62
2023-03-04T22:25:08.532Z,16.61
2023-03-04T22:28:10.045Z,16.57
2023-03-04T22:31:19.768Z,16.57
2023-03-04T22:34:21.407Z,16.54
2023-03-04T22:37:22.912Z,16.53
2023-03-04T22:40:24.625Z,16.50
2023-03-04T22:43:26.119Z,16.48
2023-03-04T22:46:30.077Z,16.47
2023-03-04T22:49:33.113Z,16.48
2023-03-04T22:52:34.656Z,16.45
2023-03-04T22:55:36.264Z,16.44
2023-03-04T22:58:38.459Z,16.42
2023-03-04T23:01:40.316Z,16.42
2023-03-04T23:04:42.994Z,16.40
2023-03-04T23:07:44.629Z,16.40
2023-03-04T23:10:46.118Z,16.38
2023-03-04T23:13:49.154Z,16.35
2023-03-04T23:16:50.850Z,16.33
2023-03-04T23:19:52.414Z,16.30
2023-03-04T23:22:53.940Z,16.27
2023-03-04T23:25:55.465Z,16.24
2023-03-04T23:28:57.157Z,16.21
2023-03-04T23:31:58.942Z,16.19
2023-03-04T23:35:00.531Z,16.16
2023-03-04T23:38:02.043Z,16.15
2023-03-04T23:41:03.646Z,16.14
2023-03-04T23:44:06.077Z,16.13
2023-03-04T23:47:07.813Z,16.11
2023-03-04T23:50:10.949Z,16.08
2023-03-04T23:53:12.423Z,16.08
2023-03-04T23:56:17.624Z,16.08
2023-03-04T23:59:19.080Z,16.07
